Ballinger, TX (76821)

7:34 AM CDT on October 30, 2014 (GMT -0500)
Hutchings Ave | Change Station
CLOSE
Current Station
Personal Weather Station
Location: Ballinger, TX
Elevation: 1631 ft
Nearby Weather Stations

Elev 1631 ft 31.74 °N, 99.95 °W | Updated 14 seconds ago

Clear
Clear
57.0 °F
Feels Like 57.0 °F
N
0.0
Wind Variable Wind from SSE
Gusts 0.0 mph

Today
High -- | Low -- °F
--% Chance of Precip.
Yesterday
High -- | Low -- °F
Precip. -- in
7:54 AM 6:52 PM
Waxing Crescent, 43% visible
Pressure 30.12 in
Visibility 10.0 miles
Clouds Scattered Clouds 1200 ft
Scattered Clouds 3700 ft
Dew Point 53 °F
Humidity 86%
Rainfall 0.00 in
Snow Depth Not available.
UV 0 out of 12
Pollen 5.20 out of 12
Air Quality Not available.
Flu Activity Not available.
METAR KCOM 301215Z AUTO 00000KT 10SM SCT012 SCT037 13/10 A3012 RMK AO2 T01320103

More Conditions Fewer Conditions

Pressure 30.12 in
Visibility 10.0 miles
Clouds Scattered Clouds 1200 ft
Scattered Clouds 3700 ft
Dew Point 53 °F
Humidity 86%
Rainfall 0.00 in
Snow Depth Not available.
UV 0 out of 12
Pollen 5.20 out of 12
Air Quality Not available.
Flu Activity Not available.
METAR KCOM 301215Z AUTO 00000KT 10SM SCT012 SCT037 13/10 A3012 RMK AO2 T01320103

More Conditions Fewer Conditions

10-Day Weather Forecast

Almanac

Astronomy

Oct. 30, 2014 Rise Set
Actual Time
Civil Twilight
Nautical Twilight
Astronomical Twilight
Moon
Length of Visible Light
Length of Day
Tomorrow will be .
, % of the Moon is Illuminated

Today's Extremes

State Highs State Lows

Community

WunderPhotos

Upload Photos

1,766,351 photos uploaded!

WunderBlogs® & News

Nearby

Air Quality

  Air Quality AQ Index Pollutant
Not available.

Snow Depth

Station Depth Elevation

Earthquake Activity

City Distance Mag. Time & Date
Minimum magnitude displayed is 2.5.

Coastal Water Temperatures

Place Temperature

Nearby Weather Stations